createdAt,value
2022-11-14T00:02:44.255Z,2.58
2022-11-14T00:05:30.193Z,2.58
2022-11-14T00:08:20.650Z,2.62
2022-11-14T00:11:06.709Z,2.52
2022-11-14T00:13:52.770Z,2.50
2022-11-14T00:16:38.256Z,2.45
2022-11-14T00:19:23.672Z,2.59
2022-11-14T00:22:09.999Z,2.44
2022-11-14T00:24:55.485Z,2.52
2022-11-14T00:27:40.957Z,2.37
2022-11-14T00:30:28.543Z,2.26
2022-11-14T00:33:19.886Z,2.35
2022-11-14T00:36:06.381Z,2.26
2022-11-14T00:38:55.386Z,2.25
2022-11-14T00:41:42.210Z,2.09
2022-11-14T00:44:28.088Z,2.22
2022-11-14T00:47:13.755Z,2.26
2022-11-14T00:49:59.288Z,2.51
2022-11-14T00:52:45.011Z,2.37
2022-11-14T00:55:31.419Z,2.17
2022-11-14T00:58:17.319Z,2.12
2022-11-14T01:01:02.808Z,2.08
2022-11-14T01:03:50.877Z,2.09
2022-11-14T01:06:36.441Z,2.10
2022-11-14T01:09:22.198Z,2.25
2022-11-14T01:12:08.168Z,2.35
2022-11-14T01:14:53.608Z,2.34
2022-11-14T01:17:39.346Z,2.30
2022-11-14T01:20:25.189Z,2.31
2022-11-14T01:23:13.135Z,2.35
2022-11-14T01:26:08.894Z,2.34
2022-11-14T01:28:54.706Z,2.23
2022-11-14T01:31:40.514Z,2.23
2022-11-14T01:34:26.634Z,2.22
2022-11-14T01:37:12.614Z,2.31
2022-11-14T01:39:58.550Z,2.40
2022-11-14T01:43:19.270Z,2.25
2022-11-14T01:46:07.407Z,2.38
2022-11-14T01:48:58.614Z,2.38
2022-11-14T01:51:51.299Z,2.26
2022-11-14T01:54:43.309Z,2.40
2022-11-14T01:57:43.221Z,2.80
2022-11-14T02:00:29.200Z,2.85
2022-11-14T02:03:16.550Z,2.85
2022-11-14T02:06:04.777Z,2.80
2022-11-14T02:08:52.446Z,2.83
2022-11-14T02:11:46.448Z,2.97
2022-11-14T02:14:33.546Z,3.00
2022-11-14T02:17:29.426Z,2.96
2022-11-14T02:20:20.896Z,3.12
2022-11-14T02:23:06.746Z,3.33
2022-11-14T02:25:52.661Z,3.35
2022-11-14T02:28:38.502Z,3.24
2022-11-14T02:31:24.554Z,3.22
2022-11-14T02:34:10.461Z,3.14
2022-11-14T02:36:57.098Z,3.14
2022-11-14T02:39:43.016Z,3.01
2022-11-14T02:42:28.696Z,2.87
2022-11-14T02:45:14.660Z,2.80
2022-11-14T02:48:00.616Z,2.91
2022-11-14T02:50:49.659Z,2.88
2022-11-14T02:53:35.435Z,2.94
2022-11-14T02:56:21.503Z,2.94
2022-11-14T02:59:07.441Z,2.94
2022-11-14T03:01:53.085Z,2.89
2022-11-14T03:04:39.181Z,3.03
2022-11-14T03:07:24.762Z,3.03
2022-11-14T03:10:11.316Z,3.06
2022-11-14T03:12:57.680Z,3.33
2022-11-14T03:15:43.522Z,3.42
2022-11-14T03:18:29.432Z,3.34
2022-11-14T03:21:19.258Z,3.37
2022-11-14T03:24:05.617Z,3.02
2022-11-14T03:26:51.930Z,2.91
2022-11-14T03:29:37.606Z,2.82
2022-11-14T03:32:23.225Z,2.79
2022-11-14T03:35:10.298Z,2.75
2022-11-14T03:37:56.918Z,2.73
2022-11-14T03:40:42.892Z,2.73
2022-11-14T03:43:33.823Z,2.65
2022-11-14T03:46:19.982Z,2.52
2022-11-14T03:49:05.717Z,2.56
2022-11-14T03:51:51.401Z,2.38
2022-11-14T03:54:38.279Z,2.35
2022-11-14T03:57:24.140Z,2.41
2022-11-14T04:00:10.901Z,2.62
2022-11-14T04:02:57.829Z,2.65
2022-11-14T04:05:47.065Z,2.61
2022-11-14T04:08:33.297Z,2.57
2022-11-14T04:11:19.930Z,2.47
2022-11-14T04:14:05.933Z,2.42
2022-11-14T04:16:51.813Z,2.49
2022-11-14T04:19:37.787Z,2.62
2022-11-14T04:22:23.769Z,2.61
2022-11-14T04:25:10.038Z,2.56
2022-11-14T04:27:55.700Z,2.41
2022-11-14T04:30:42.508Z,2.29
2022-11-14T04:33:28.768Z,2.56
2022-11-14T04:36:14.744Z,2.52
2022-11-14T04:39:01.436Z,2.36
2022-11-14T04:41:47.129Z,2.30
2022-11-14T04:44:33.052Z,2.44
2022-11-14T04:47:19.152Z,2.49
2022-11-14T04:50:05.848Z,2.53
2022-11-14T04:52:53.669Z,2.53
2022-11-14T04:55:39.367Z,2.59
2022-11-14T04:58:25.208Z,2.68
2022-11-14T05:01:13.694Z,2.60
2022-11-14T05:03:59.574Z,2.60
2022-11-14T05:06:45.297Z,2.66
2022-11-14T05:09:31.317Z,2.71
2022-11-14T05:12:17.245Z,2.73
2022-11-14T05:15:02.700Z,2.63
2022-11-14T05:17:48.264Z,2.55
2022-11-14T05:20:34.102Z,2.61
2022-11-14T05:23:24.473Z,2.68
2022-11-14T05:26:14.785Z,2.58
2022-11-14T05:29:00.866Z,2.63
2022-11-14T05:31:46.697Z,2.57
2022-11-14T05:34:32.613Z,2.43
2022-11-14T05:37:18.283Z,2.40
2022-11-14T05:40:05.785Z,2.38
2022-11-14T05:42:56.694Z,2.41
2022-11-14T05:45:42.405Z,2.33
2022-11-14T05:48:28.973Z,2.31
2022-11-14T05:51:15.383Z,2.27
2022-11-14T05:54:01.055Z,2.43
2022-11-14T05:56:47.089Z,2.53
2022-11-14T05:59:32.603Z,2.48
2022-11-14T06:02:18.248Z,2.33
2022-11-14T06:05:04.357Z,2.35
2022-11-14T06:07:57.354Z,2.43
2022-11-14T06:10:42.869Z,2.49
2022-11-14T06:13:28.520Z,2.59
2022-11-14T06:16:18.050Z,2.47
2022-11-14T06:19:05.392Z,2.53
2022-11-14T06:21:51.633Z,2.48
2022-11-14T06:24:37.714Z,2.42
2022-11-14T06:27:25.172Z,2.43
2022-11-14T06:30:12.041Z,2.45
2022-11-14T06:33:01.334Z,2.42
2022-11-14T06:35:46.890Z,2.58
2022-11-14T06:38:36.104Z,2.60
2022-11-14T06:41:23.236Z,2.57
2022-11-14T06:44:09.768Z,2.48
2022-11-14T06:46:56.641Z,2.46
2022-11-14T06:49:42.725Z,2.57
2022-11-14T06:52:28.697Z,2.53
2022-11-14T06:55:14.239Z,2.68
2022-11-14T06:57:59.784Z,2.74
2022-11-14T07:00:45.200Z,2.94
2022-11-14T07:03:31.297Z,3.23
2022-11-14T07:06:23.360Z,3.71
2022-11-14T07:09:10.943Z,4.11
2022-11-14T07:11:56.638Z,4.97
2022-11-14T07:14:43.484Z,5.93
2022-11-14T07:17:31.416Z,6.48
2022-11-14T07:20:20.706Z,6.97
2022-11-14T07:23:06.186Z,7.06
2022-11-14T07:25:52.163Z,6.68
2022-11-14T07:28:45.919Z,6.91
2022-11-14T07:31:33.859Z,8.52
2022-11-14T07:34:19.728Z,9.46
2022-11-14T07:37:05.749Z,10.79
2022-11-14T07:39:51.817Z,12.27
2022-11-14T07:42:37.806Z,12.92
2022-11-14T07:45:23.538Z,12.91
2022-11-14T07:48:09.328Z,13.37
2022-11-14T07:51:03.835Z,13.74
2022-11-14T07:53:55.932Z,14.90
2022-11-14T07:56:41.390Z,15.43
2022-11-14T07:59:26.978Z,16.95
2022-11-14T08:02:14.689Z,17.29
2022-11-14T08:05:01.411Z,18.32
2022-11-14T08:07:50.258Z,18.28
2022-11-14T08:10:35.995Z,18.74
2022-11-14T08:13:36.637Z,18.91
2022-11-14T08:16:22.596Z,18.75
2022-11-14T08:19:08.455Z,19.61
2022-11-14T08:21:54.418Z,19.86
2022-11-14T08:24:40.510Z,19.60
2022-11-14T08:27:26.467Z,20.14
2022-11-14T08:30:13.273Z,19.38
2022-11-14T08:33:03.536Z,20.23
2022-11-14T08:35:49.287Z,21.13
2022-11-14T08:38:35.417Z,20.85
2022-11-14T08:41:21.592Z,21.70
2022-11-14T08:44:07.362Z,22.34
2022-11-14T08:46:53.229Z,21.74
2022-11-14T08:49:38.898Z,21.90
2022-11-14T08:52:24.737Z,22.05
2022-11-14T08:55:10.719Z,22.36
2022-11-14T08:57:56.257Z,21.77
2022-11-14T09:00:42.465Z,22.81
2022-11-14T09:03:28.167Z,22.70
2022-11-14T09:06:14.099Z,23.31
2022-11-14T09:09:00.177Z,23.21
2022-11-14T09:11:45.573Z,23.13
2022-11-14T09:14:31.232Z,25.27
2022-11-14T09:17:17.273Z,25.65
2022-11-14T09:20:03.508Z,26.09
2022-11-14T09:22:52.170Z,25.84
2022-11-14T09:25:38.702Z,26.58
2022-11-14T09:28:25.063Z,26.73
2022-11-14T09:31:13.522Z,25.86
2022-11-14T09:33:59.088Z,25.15
2022-11-14T09:36:45.135Z,23.79
2022-11-14T09:39:31.055Z,24.17
2022-11-14T09:42:44.271Z,23.79
2022-11-14T09:45:31.000Z,23.34
2022-11-14T09:48:22.523Z,22.80
2022-11-14T09:51:16.176Z,23.16
2022-11-14T09:54:29.471Z,22.57
2022-11-14T09:57:21.059Z,21.66
2022-11-14T10:00:19.309Z,21.37
2022-11-14T10:04:08.325Z,21.41
2022-11-14T10:07:42.740Z,20.81
2022-11-14T10:10:39.454Z,20.18
2022-11-14T10:14:00.888Z,19.99
2022-11-14T10:17:12.846Z,19.00
2022-11-14T10:20:32.760Z,20.84
2022-11-14T10:23:30.813Z,21.48
2022-11-14T10:26:31.399Z,21.58
2022-11-14T10:29:41.233Z,21.14
2022-11-14T10:33:18.275Z,22.14
2022-11-14T10:36:15.533Z,22.46
2022-11-14T10:39:41.690Z,23.05
2022-11-14T10:42:40.334Z,23.34
2022-11-14T10:45:38.999Z,23.11
2022-11-14T10:48:49.091Z,24.26
2022-11-14T10:51:44.909Z,24.95
2022-11-14T10:55:00.232Z,25.92
2022-11-14T10:57:46.617Z,25.90
2022-11-14T11:00:32.515Z,26.53
2022-11-14T11:03:18.424Z,27.74
2022-11-14T11:06:04.239Z,28.28
2022-11-14T11:09:08.833Z,29.34
2022-11-14T11:11:59.025Z,29.77
2022-11-14T11:14:46.320Z,28.46
2022-11-14T11:17:38.543Z,29.38
2022-11-14T11:20:36.159Z,29.11
2022-11-14T11:23:31.893Z,29.12
2022-11-14T11:26:28.791Z,28.47
2022-11-14T11:29:18.403Z,27.87
2022-11-14T11:32:04.662Z,27.44
2022-11-14T11:34:52.159Z,26.34
2022-11-14T11:37:56.040Z,24.00
2022-11-14T11:40:47.930Z,23.63
2022-11-14T11:43:41.432Z,24.06
2022-11-14T11:46:47.040Z,24.89
2022-11-14T11:49:53.850Z,24.49
2022-11-14T11:53:05.682Z,24.61
2022-11-14T11:56:00.289Z,22.66
2022-11-14T11:58:59.011Z,22.34
2022-11-14T12:01:44.937Z,23.02
2022-11-14T12:04:31.472Z,22.90
2022-11-14T12:07:30.222Z,21.75
2022-11-14T12:10:28.954Z,22.60
2022-11-14T12:14:05.319Z,23.08
2022-11-14T12:17:39.730Z,22.77
2022-11-14T12:20:53.105Z,22.28
2022-11-14T12:24:23.691Z,22.52
2022-11-14T12:27:22.499Z,22.45
2022-11-14T12:30:24.638Z,21.50
2022-11-14T12:33:17.379Z,20.93
2022-11-14T12:36:10.055Z,20.90
2022-11-14T12:38:57.218Z,20.36
2022-11-14T12:41:43.226Z,19.18
2022-11-14T12:44:29.168Z,19.16
2022-11-14T12:47:29.028Z,17.81
2022-11-14T12:50:38.924Z,17.24
2022-11-14T12:53:35.978Z,16.60
2022-11-14T12:56:31.017Z,15.50
2022-11-14T12:59:53.456Z,15.03
2022-11-14T13:03:11.566Z,14.71
2022-11-14T13:06:09.613Z,14.29
2022-11-14T13:09:22.791Z,13.80
2022-11-14T13:13:23.127Z,13.31
2022-11-14T13:16:49.155Z,13.02
2022-11-14T13:20:04.291Z,13.01
2022-11-14T13:22:50.343Z,12.71
2022-11-14T13:25:36.175Z,12.56
2022-11-14T13:28:51.238Z,12.28
2022-11-14T13:31:37.116Z,12.22
2022-11-14T13:35:00.769Z,12.12
2022-11-14T13:38:01.725Z,11.99
2022-11-14T13:41:24.016Z,11.50
2022-11-14T13:44:24.772Z,11.36
2022-11-14T13:47:47.614Z,11.40
2022-11-14T13:50:40.563Z,11.27
2022-11-14T13:53:30.333Z,11.30
2022-11-14T13:56:43.554Z,11.18
2022-11-14T14:00:18.364Z,11.07
2022-11-14T14:03:23.644Z,10.95
2022-11-14T14:06:20.012Z,10.93
2022-11-14T14:09:28.748Z,10.78
2022-11-14T14:12:42.383Z,10.81
2022-11-14T14:15:48.319Z,10.77
2022-11-14T14:18:58.821Z,10.71
2022-11-14T14:22:25.845Z,10.65
2022-11-14T14:25:26.787Z,10.48
2022-11-14T14:28:31.944Z,10.34
2022-11-14T14:31:25.036Z,10.16
2022-11-14T14:34:29.067Z,10.09
2022-11-14T14:37:21.653Z,9.94
2022-11-14T14:40:43.166Z,9.52
2022-11-14T14:43:35.786Z,9.33
2022-11-14T14:46:33.648Z,9.26
2022-11-14T14:49:35.311Z,9.30
2022-11-14T14:52:33.032Z,9.02
2022-11-14T14:55:29.125Z,8.90
2022-11-14T14:58:30.566Z,8.60
2022-11-14T15:01:21.435Z,8.37
2022-11-14T15:04:13.525Z,8.33
2022-11-14T15:06:59.714Z,8.31
2022-11-14T15:09:57.939Z,8.42
2022-11-14T15:12:44.748Z,8.27
2022-11-14T15:15:31.851Z,8.33
2022-11-14T15:18:29.833Z,8.18
2022-11-14T15:21:25.097Z,7.89
2022-11-14T15:24:20.559Z,7.75
2022-11-14T15:27:19.382Z,7.57
2022-11-14T15:30:19.632Z,7.63
2022-11-14T15:33:25.804Z,7.42
2022-11-14T15:36:19.752Z,7.34
2022-11-14T15:39:28.671Z,7.28
2022-11-14T15:42:28.932Z,7.32
2022-11-14T15:45:26.902Z,7.33
2022-11-14T15:48:19.160Z,7.60
2022-11-14T15:51:05.430Z,7.84
2022-11-14T15:53:53.511Z,7.78
2022-11-14T15:56:39.263Z,7.64
2022-11-14T15:59:27.641Z,7.43
2022-11-14T16:02:21.975Z,7.42
2022-11-14T16:05:12.602Z,7.28
2022-11-14T16:07:58.272Z,7.44
2022-11-14T16:10:44.253Z,7.52
2022-11-14T16:13:30.399Z,7.54
2022-11-14T16:16:16.459Z,7.58
2022-11-14T16:19:02.444Z,7.99
2022-11-14T16:21:48.540Z,8.34
2022-11-14T16:24:34.586Z,7.86
2022-11-14T16:27:20.389Z,7.61
2022-11-14T16:30:06.755Z,7.62
2022-11-14T16:32:53.014Z,7.61
2022-11-14T16:35:38.779Z,7.37
2022-11-14T16:38:24.515Z,7.21
2022-11-14T16:41:13.350Z,7.15
2022-11-14T16:43:59.502Z,7.14
2022-11-14T16:46:45.922Z,7.22
2022-11-14T16:49:31.323Z,7.26
2022-11-14T16:52:17.209Z,7.30
2022-11-14T16:55:02.909Z,7.23
2022-11-14T16:57:49.390Z,7.18
2022-11-14T17:00:35.925Z,7.08
2022-11-14T17:03:22.449Z,7.19
2022-11-14T17:06:12.644Z,7.12
2022-11-14T17:09:00.217Z,7.14
2022-11-14T17:11:45.953Z,7.15
2022-11-14T17:14:31.699Z,7.16
2022-11-14T17:17:18.168Z,7.18
2022-11-14T17:20:04.585Z,7.24
2022-11-14T17:22:50.422Z,7.82
2022-11-14T17:25:36.683Z,7.89
2022-11-14T17:28:22.811Z,7.58
2022-11-14T17:31:09.481Z,7.46
2022-11-14T17:33:58.335Z,7.31
2022-11-14T17:36:43.824Z,7.47
2022-11-14T17:39:29.989Z,7.34
2022-11-14T17:42:15.971Z,7.35
2022-11-14T17:45:02.144Z,7.35
2022-11-14T17:47:48.010Z,7.37
2022-11-14T17:50:37.633Z,7.31
2022-11-14T17:53:23.751Z,7.17
2022-11-14T17:56:19.628Z,7.23
2022-11-14T17:59:05.524Z,7.42
2022-11-14T18:01:52.418Z,7.53
2022-11-14T18:04:38.536Z,7.33
2022-11-14T18:07:24.659Z,7.59
2022-11-14T18:10:10.467Z,7.66
2022-11-14T18:12:56.592Z,7.81
2022-11-14T18:15:42.773Z,7.67
2022-11-14T18:18:34.514Z,7.47
2022-11-14T18:21:24.634Z,7.43
2022-11-14T18:24:14.128Z,7.61
2022-11-14T18:27:00.003Z,7.45
2022-11-14T18:29:46.210Z,7.10
2022-11-14T18:32:32.025Z,7.14
2022-11-14T18:35:18.046Z,6.93
2022-11-14T18:38:04.193Z,6.77
2022-11-14T18:40:55.831Z,6.58
2022-11-14T18:43:44.652Z,6.66
2022-11-14T18:46:37.151Z,6.71
2022-11-14T18:49:23.625Z,6.71
2022-11-14T18:52:14.198Z,6.99
2022-11-14T18:55:04.242Z,7.16
2022-11-14T18:57:49.757Z,7.45
2022-11-14T19:00:36.025Z,7.56
2022-11-14T19:03:22.205Z,7.69
2022-11-14T19:06:12.121Z,7.73
2022-11-14T19:09:13.599Z,7.71
2022-11-14T19:12:17.662Z,7.81
2022-11-14T19:15:03.591Z,7.34
2022-11-14T19:17:49.486Z,7.11
2022-11-14T19:20:35.303Z,7.05
2022-11-14T19:23:21.542Z,7.07
2022-11-14T19:26:07.363Z,7.13
2022-11-14T19:28:53.281Z,7.20
2022-11-14T19:31:39.933Z,7.11
2022-11-14T19:34:25.929Z,7.00
2022-11-14T19:37:11.869Z,6.98
2022-11-14T19:39:57.751Z,6.96
2022-11-14T19:42:43.671Z,6.84
2022-11-14T19:45:33.407Z,6.80
2022-11-14T19:48:19.220Z,6.72
2022-11-14T19:51:09.714Z,6.56
2022-11-14T19:53:58.387Z,6.43
2022-11-14T19:56:44.506Z,6.49
2022-11-14T19:59:30.367Z,6.48
2022-11-14T20:02:17.284Z,6.38
2022-11-14T20:05:03.255Z,6.43
2022-11-14T20:07:49.077Z,6.48
2022-11-14T20:10:47.599Z,6.48
2022-11-14T20:13:40.334Z,6.51
2022-11-14T20:16:29.810Z,6.54
2022-11-14T20:19:16.250Z,6.44
2022-11-14T20:22:02.428Z,6.40
2022-11-14T20:24:48.656Z,6.48
2022-11-14T20:27:34.391Z,6.44
2022-11-14T20:30:20.209Z,6.41
2022-11-14T20:33:07.779Z,6.33
2022-11-14T20:35:53.933Z,6.24
2022-11-14T20:38:39.688Z,6.30
2022-11-14T20:41:25.880Z,6.37
2022-11-14T20:44:11.836Z,6.37
2022-11-14T20:46:57.808Z,6.30
2022-11-14T20:49:44.423Z,6.23
2022-11-14T20:52:31.049Z,6.19
2022-11-14T20:55:17.347Z,6.31
2022-11-14T20:58:03.441Z,6.20
2022-11-14T21:00:52.967Z,6.16
2022-11-14T21:03:39.934Z,6.56
2022-11-14T21:06:25.904Z,6.88
2022-11-14T21:09:11.543Z,6.79
2022-11-14T21:11:57.566Z,6.63
2022-11-14T21:14:43.079Z,6.65
2022-11-14T21:17:28.895Z,7.05
2022-11-14T21:20:15.001Z,7.40
2022-11-14T21:23:00.854Z,7.52
2022-11-14T21:25:46.503Z,7.32
2022-11-14T21:28:34.112Z,7.13
2022-11-14T21:31:27.152Z,7.06
2022-11-14T21:34:16.741Z,7.28
2022-11-14T21:37:02.332Z,7.41
2022-11-14T21:39:49.052Z,7.71
2022-11-14T21:42:36.653Z,7.54
2022-11-14T21:45:22.548Z,7.77
2022-11-14T21:48:08.320Z,8.08
2022-11-14T21:50:53.918Z,8.20
2022-11-14T21:53:41.024Z,7.97
2022-11-14T21:56:30.340Z,7.88
2022-11-14T21:59:18.984Z,7.50
2022-11-14T22:02:23.434Z,7.69
2022-11-14T22:05:09.053Z,7.82
2022-11-14T22:07:54.929Z,7.95
2022-11-14T22:10:41.094Z,7.47
2022-11-14T22:13:30.499Z,7.55
2022-11-14T22:16:21.013Z,7.24
2022-11-14T22:19:07.017Z,7.39
2022-11-14T22:21:53.080Z,7.48
2022-11-14T22:24:39.050Z,7.39
2022-11-14T22:27:26.034Z,7.17
2022-11-14T22:30:12.238Z,7.08
2022-11-14T22:33:00.418Z,6.96
2022-11-14T22:35:46.533Z,6.86
2022-11-14T22:38:36.587Z,6.68
2022-11-14T22:41:32.704Z,6.64
2022-11-14T22:44:19.080Z,6.60
2022-11-14T22:47:04.906Z,6.31
2022-11-14T22:49:50.770Z,6.09
2022-11-14T22:52:36.810Z,6.00
2022-11-14T22:55:22.488Z,5.89
2022-11-14T22:58:08.696Z,5.90
2022-11-14T23:00:54.483Z,5.93
2022-11-14T23:03:40.964Z,5.81
2022-11-14T23:06:28.606Z,5.70
2022-11-14T23:09:14.543Z,5.77
2022-11-14T23:12:00.558Z,5.76
2022-11-14T23:14:46.283Z,5.62
2022-11-14T23:17:32.729Z,5.58
2022-11-14T23:20:18.890Z,5.64
2022-11-14T23:23:05.906Z,5.69
2022-11-14T23:25:51.795Z,5.60
2022-11-14T23:28:38.161Z,5.55
2022-11-14T23:31:25.228Z,5.67
2022-11-14T23:34:10.958Z,5.65
2022-11-14T23:36:56.646Z,5.65
2022-11-14T23:39:42.715Z,5.66
2022-11-14T23:42:28.710Z,5.79
2022-11-14T23:45:14.380Z,5.87
2022-11-14T23:47:59.886Z,5.92
2022-11-14T23:50:54.120Z,5.92
2022-11-14T23:53:40.244Z,5.86
2022-11-14T23:56:26.307Z,5.79
2022-11-14T23:59:11.960Z,5.74
